Rio Dell, California
Current Conditions -  °F | °C
As of 5:35 PM on Tuesday 27 Jan 2015 (Local Time) from KFOT Reporting Station
Clear Clear  
Wind Chill: 54°   Ceiling: Unl
Heat Index: 54°   Visibility: 10mi
Dew Point: 50°   Wind: 5mph
Humidity: 88%   Direction: 290°WNW
Pressure: 30.2"   Gusts: NA
Location:  40.5°N, 124.11°W
Report Text: KFOT 280135Z AUTO 29004KT 10SM CLR 12/10 A3020 RMK AO1
Loading
Personal Weather Stations






























Interactive Weather Map New forecast layout! Learn more

10-Day Weather Forecast

Advertisements
Track Severe Weather on mobile